Time;durP1;ratioP1;P1;durP2;ratioP2;P2;SDS_P1;SDS_P2;PMS_P1;PMS_P2;Temp;Humidity;BMP_temperature;BMP_pressure;BME280_temperature;BME280_humidity;BME280_pressure;Samples;Min_cycle;Max_cycle;Signal;HPM_P1;HPM_P2
2021/05/19 00:01:26;;;;;;;6.45;4.22;;;;;;;-145.50;100.00;65435.88;4998141;28;20045;-74
2021/05/19 00:03:53;;;;;;;6.72;4.45;;;;;;;-145.50;100.00;65435.88;4985852;28;20895;-75
2021/05/19 00:06:19;;;;;;;6.35;4.57;;;;;;;-145.50;100.00;65435.88;4983642;28;20108;-75
2021/05/19 00:08:46;;;;;;;9.82;4.88;;;;;;;-145.50;100.00;65435.88;4992870;28;20053;-75
2021/05/19 00:11:12;;;;;;;7.68;5.15;;;;;;;-145.50;100.00;65435.88;4992075;28;20058;-75
2021/05/19 00:13:39;;;;;;;8.48;4.90;;;;;;;-145.50;100.00;65435.88;4992787;28;20105;-75
2021/05/19 00:16:07;;;;;;;9.07;5.10;;;;;;;-145.50;100.00;65435.88;4991890;28;20062;-75
2021/05/19 00:18:34;;;;;;;9.45;5.43;;;;;;;-145.50;100.00;65435.88;4985832;28;20108;-75
2021/05/19 00:21:02;;;;;;;9.25;5.03;;;;;;;-145.50;100.00;65435.88;4998826;28;20141;-75
2021/05/19 00:23:29;;;;;;;7.32;5.47;;;;;;;-145.50;100.00;65435.88;4988400;28;20600;-75
2021/05/19 00:25:56;;;;;;;7.10;5.22;;;;;;;-145.50;100.00;65435.88;5002025;28;20057;-75
2021/05/19 00:28:23;;;;;;;10.68;5.65;;;;;;;-145.50;100.00;65435.88;4991411;28;20065;-75
2021/05/19 00:30:54;;;;;;;8.60;5.35;;;;;;;-145.50;100.00;65435.88;4994713;28;20112;-75
2021/05/19 00:33:21;;;;;;;7.53;5.25;;;;;;;-145.50;100.00;65435.88;4987187;28;20555;-75
2021/05/19 00:35:48;;;;;;;10.85;5.35;;;;;;;-145.50;100.00;65435.88;5002988;28;20046;-75
2021/05/19 00:38:14;;;;;;;8.85;4.88;;;;;;;-145.50;100.00;65435.88;4999991;28;20057;-75
2021/05/19 00:40:41;;;;;;;10.05;4.85;;;;;;;-145.50;100.00;65435.88;4993604;28;20049;-75
2021/05/19 00:43:08;;;;;;;7.68;4.97;;;;;;;-145.50;100.00;65435.88;5000601;28;20056;-76
2021/05/19 00:45:34;;;;;;;8.27;5.60;;;;;;;-145.50;100.00;65435.88;4985189;28;20085;-75
2021/05/19 00:48:01;;;;;;;9.95;5.93;;;;;;;-145.50;100.00;65435.88;4993505;28;20081;-75
2021/05/19 00:50:30;;;;;;;6.80;5.00;;;;;;;-145.50;100.00;65435.88;4993934;28;20551;-75
2021/05/19 00:52:58;;;;;;;9.93;5.32;;;;;;;-145.50;100.00;65435.88;5000432;28;20112;-76
2021/05/19 00:55:25;;;;;;;9.20;5.03;;;;;;;-145.50;100.00;65435.88;5001481;28;20054;-75
2021/05/19 00:57:53;;;;;;;9.38;5.65;;;;;;;-145.50;100.00;65435.88;4992935;28;20068;-76
2021/05/19 01:00:22;;;;;;;12.45;5.88;;;;;;;-145.50;100.00;65435.88;4994974;28;20107;-76
2021/05/19 01:02:49;;;;;;;10.55;5.78;;;;;;;-145.50;100.00;65435.88;4995820;28;20112;-75
2021/05/19 01:05:36;;;;;;;9.00;5.57;;;;;;;-145.50;100.00;65435.88;5001027;28;20054;-76
2021/05/19 01:10:49;;;;;;;9.90;5.10;;;;;;;-145.50;100.00;65435.88;5000821;28;20103;-76
2021/05/19 01:13:16;;;;;;;6.65;5.13;;;;;;;-145.50;100.00;65435.88;4986918;28;20506;-76
2021/05/19 01:15:43;;;;;;;10.25;5.47;;;;;;;-145.50;100.00;65435.88;5001267;28;20050;-76
2021/05/19 01:18:10;;;;;;;8.43;5.93;;;;;;;-145.50;100.00;65435.88;4997924;28;20111;-75
2021/05/19 01:20:37;;;;;;;7.82;5.50;;;;;;;-145.50;100.00;65435.88;4994473;28;20737;-75
2021/05/19 01:23:06;;;;;;;10.73;5.50;;;;;;;-145.50;100.00;65435.88;4994555;28;20042;-75
2021/05/19 01:25:34;;;;;;;8.95;6.05;;;;;;;-145.50;100.00;65435.88;4985793;28;20085;-75
2021/05/19 01:28:03;;;;;;;9.77;5.45;;;;;;;-145.50;100.00;65435.88;4994552;28;20081;-75
2021/05/19 01:30:32;;;;;;;7.40;5.38;;;;;;;-145.50;100.00;65435.88;4993479;28;20413;-75
2021/05/19 01:32:59;;;;;;;;;;;;;;;-145.50;100.00;65435.88;4999208;28;20050;-75
2021/05/19 01:35:29;;;;;;;9.70;5.55;;;;;;;-145.50;100.00;65435.88;4994219;28;19932;-75
2021/05/19 01:37:55;;;;;;;7.45;5.60;;;;;;;-145.50;100.00;65435.88;4981844;28;20503;-77
2021/05/19 01:40:22;;;;;;;14.07;5.85;;;;;;;-145.50;100.00;65435.88;4995073;28;20053;-76
2021/05/19 01:42:51;;;;;;;8.65;6.20;;;;;;;-145.50;100.00;65435.88;4990624;28;20120;-76
2021/05/19 01:45:22;;;;;;;9.32;6.75;;;;;;;-145.50;100.00;65435.88;4993782;28;20216;-76
2021/05/19 01:47:50;;;;;;;11.80;6.75;;;;;;;-145.50;100.00;65435.88;4988098;28;20085;-76
2021/05/19 01:50:21;;;;;;;8.68;6.10;;;;;;;-145.50;100.00;65435.88;4995418;28;20526;-76
2021/05/19 01:52:50;;;;;;;8.60;6.45;;;;;;;-145.50;100.00;65435.88;4993756;28;20402;-76
2021/05/19 01:55:17;;;;;;;8.70;6.47;;;;;;;-145.50;100.00;65435.88;5005455;28;20137;-76
2021/05/19 01:57:44;;;;;;;9.85;6.35;;;;;;;-145.50;100.00;65435.88;4998950;28;20488;-76
2021/05/19 02:00:13;;;;;;;10.40;6.18;;;;;;;-145.50;100.00;65435.88;4995258;28;20061;-76
2021/05/19 02:02:41;;;;;;;9.07;5.95;;;;;;;-145.50;100.00;65435.88;4998009;28;20053;-76
2021/05/19 02:05:11;;;;;;;8.00;6.35;;;;;;;-145.50;100.00;65435.88;4992490;28;20069;-76
2021/05/19 02:07:38;;;;;;;12.48;6.43;;;;;;;-145.50;100.00;65435.88;4992037;28;20054;-77
2021/05/19 02:10:09;;;;;;;10.27;6.82;;;;;;;-145.50;100.00;65435.88;5000295;28;20520;-77
2021/05/19 02:12:36;;;;;;;10.52;7.28;;;;;;;-145.50;100.00;65435.88;4988162;28;20474;-76
2021/05/19 02:15:04;;;;;;;12.32;6.32;;;;;;;-145.50;100.00;65435.88;5000411;28;20077;-76
2021/05/19 02:17:31;;;;;;;11.38;6.78;;;;;;;-145.50;100.00;65435.88;4990238;28;20506;-76
2021/05/19 02:20:13;;;;;;;9.18;7.03;;;;;;;-145.50;100.00;65435.88;4998711;28;20093;-76
2021/05/19 02:22:40;;;;;;;11.73;7.13;;;;;;;-145.50;100.00;65435.88;4987714;28;20386;-76
2021/05/19 02:25:09;;;;;;;11.05;7.95;;;;;;;-145.50;100.00;65435.88;4996221;28;20128;-76
2021/05/19 02:27:36;;;;;;;9.00;6.55;;;;;;;-145.50;100.00;65435.88;4991433;28;20082;-76
2021/05/19 02:30:04;;;;;;;11.10;8.00;;;;;;;-145.50;100.00;65435.88;4989459;28;20058;-76
2021/05/19 02:32:31;;;;;;;10.60;7.38;;;;;;;-145.50;100.00;65435.88;4989574;28;20103;-75
2021/05/19 02:34:57;;;;;;;12.20;7.75;;;;;;;-145.50;100.00;65435.88;4988781;28;20053;-76
2021/05/19 02:37:24;;;;;;;11.82;8.02;;;;;;;-145.50;100.00;65435.88;4993198;28;20544;-76
2021/05/19 02:39:51;;;;;;;13.95;8.88;;;;;;;-145.50;100.00;65435.88;4993102;28;20561;-75
2021/05/19 02:42:18;;;;;;;11.27;8.40;;;;;;;-145.50;100.00;65435.88;4995326;28;20403;-76
2021/05/19 02:44:45;;;;;;;12.90;8.85;;;;;;;-145.50;100.00;65435.88;4994780;28;20089;-75
2021/05/19 02:47:11;;;;;;;14.20;8.57;;;;;;;-145.50;100.00;65435.88;4986886;28;20449;-76
2021/05/19 02:49:38;;;;;;;13.00;8.27;;;;;;;-145.50;100.00;65435.88;4997413;28;20509;-75
2021/05/19 02:52:05;;;;;;;12.57;8.85;;;;;;;-145.50;100.00;65435.88;4986375;28;20092;-76
2021/05/19 02:54:32;;;;;;;14.13;9.20;;;;;;;-145.50;100.00;65435.88;5001498;28;20054;-76
2021/05/19 02:56:59;;;;;;;14.05;9.20;;;;;;;-145.50;100.00;65435.88;4993216;28;20054;-76
2021/05/19 02:59:26;;;;;;;15.38;9.02;;;;;;;-145.50;100.00;65435.88;4991773;28;20123;-77
2021/05/19 03:01:52;;;;;;;11.30;8.80;;;;;;;-145.50;100.00;65435.88;4990938;28;20502;-77
2021/05/19 03:04:19;;;;;;;10.00;8.20;;;;;;;-145.50;100.00;65435.88;4991282;28;20053;-77
2021/05/19 03:06:45;;;;;;;13.30;8.77;;;;;;;-145.50;100.00;65435.88;4995775;28;20054;-77
2021/05/19 03:09:12;;;;;;;12.07;8.68;;;;;;;-145.50;100.00;65435.88;4990452;28;20115;-77
2021/05/19 03:11:38;;;;;;;12.73;9.00;;;;;;;-145.50;100.00;65435.88;4993292;28;20602;-77
2021/05/19 03:14:05;;;;;;;13.13;9.73;;;;;;;-145.50;100.00;65435.88;4991532;28;20204;-76
2021/05/19 03:16:33;;;;;;;15.65;9.95;;;;;;;-145.50;100.00;65435.88;4989039;28;20062;-76
2021/05/19 03:19:00;;;;;;;15.57;9.38;;;;;;;-145.50;100.00;65435.88;4997802;28;20057;-76
2021/05/19 03:21:26;;;;;;;15.05;10.55;;;;;;;-145.50;100.00;65435.88;4988432;28;20133;-76
2021/05/19 03:23:53;;;;;;;15.18;10.15;;;;;;;-145.50;100.00;65435.88;4995072;28;20053;-76
2021/05/19 03:26:20;;;;;;;13.82;9.55;;;;;;;-145.50;100.00;65435.88;4986193;28;20053;-76
2021/05/19 03:28:46;;;;;;;17.85;11.50;;;;;;;-145.50;100.00;65435.88;4991113;28;20060;-76
2021/05/19 03:31:13;;;;;;;17.20;11.52;;;;;;;-145.50;100.00;65435.88;4995837;28;20486;-76
2021/05/19 03:33:40;;;;;;;17.08;11.77;;;;;;;-145.50;100.00;65435.88;4986761;28;20632;-76
2021/05/19 03:36:08;;;;;;;15.45;11.45;;;;;;;-145.50;100.00;65435.88;4992842;28;20057;-76
2021/05/19 03:38:35;;;;;;;17.40;11.68;;;;;;;-145.50;100.00;65435.88;4992475;28;20184;-76
2021/05/19 03:41:04;;;;;;;14.90;11.23;;;;;;;-145.50;100.00;65435.88;4984872;28;20105;-76
2021/05/19 03:43:30;;;;;;;15.23;11.13;;;;;;;-145.50;100.00;65435.88;4984551;28;20077;-76
2021/05/19 03:45:57;;;;;;;14.85;11.05;;;;;;;-145.50;100.00;65435.88;4993525;28;20136;-76
2021/05/19 03:48:24;;;;;;;16.48;11.43;;;;;;;-145.50;100.00;65435.88;5001006;28;20513;-76
2021/05/19 03:50:50;;;;;;;15.07;11.23;;;;;;;-145.50;100.00;65435.88;4995848;28;20058;-76
2021/05/19 03:53:17;;;;;;;15.18;10.50;;;;;;;-145.50;100.00;65435.88;4998983;28;20119;-76
2021/05/19 03:55:44;;;;;;;15.52;11.80;;;;;;;-145.50;100.00;65435.88;4990460;28;20143;-76
2021/05/19 03:58:12;;;;;;;14.30;11.05;;;;;;;-145.50;100.00;65435.88;5002994;28;20497;-76
2021/05/19 04:00:39;;;;;;;16.15;11.68;;;;;;;-145.50;100.00;65435.88;4992179;28;20089;-76
2021/05/19 04:03:06;;;;;;;15.75;11.63;;;;;;;-145.50;100.00;65435.88;4999399;28;20509;-76
2021/05/19 04:05:36;;;;;;;16.38;11.90;;;;;;;-145.50;100.00;65435.88;4998875;28;20100;-76
2021/05/19 04:08:07;;;;;;;16.38;11.45;;;;;;;-145.50;100.00;65435.88;4988435;28;20050;-76
2021/05/19 04:10:34;;;;;;;16.95;11.57;;;;;;;-145.50;100.00;65435.88;4997151;28;20084;-76
2021/05/19 04:13:04;;;;;;;16.17;12.00;;;;;;;-145.50;100.00;65435.88;4988434;28;20085;-76
2021/05/19 04:15:32;;;;;;;15.65;11.02;;;;;;;-145.50;100.00;65435.88;5003116;28;20109;-76
2021/05/19 04:17:59;;;;;;;14.88;10.77;;;;;;;-145.50;100.00;65435.88;4989014;28;20548;-76
2021/05/19 04:20:26;;;;;;;16.67;12.73;;;;;;;-145.50;100.00;65435.88;4994548;28;20088;-76
2021/05/19 04:22:53;;;;;;;17.60;11.90;;;;;;;-145.50;100.00;65435.88;4997352;28;20053;-76
2021/05/19 04:25:20;;;;;;;15.73;11.63;;;;;;;-145.50;100.00;65435.88;4995053;28;20211;-76
2021/05/19 04:27:46;;;;;;;16.30;12.25;;;;;;;-145.50;100.00;65435.88;4999088;28;20190;-76
2021/05/19 04:30:13;;;;;;;15.98;12.60;;;;;;;-145.50;100.00;65435.88;4993256;28;20089;-76
2021/05/19 04:32:40;;;;;;;17.25;11.15;;;;;;;-145.50;100.00;65435.88;4996624;28;20559;-76
2021/05/19 04:35:08;;;;;;;14.52;11.43;;;;;;;-145.50;100.00;65435.88;4994495;28;20092;-76
2021/05/19 04:37:35;;;;;;;18.33;12.13;;;;;;;-145.50;100.00;65435.88;4999733;28;20199;-76
2021/05/19 04:40:03;;;;;;;17.25;11.95;;;;;;;-145.50;100.00;65435.88;4995765;28;20340;-76
2021/05/19 04:42:30;;;;;;;;;;;;;;;-145.50;100.00;65435.88;4992907;28;20510;-76
2021/05/19 04:44:56;;;;;;;16.92;11.43;;;;;;;-145.50;100.00;65435.88;5003614;28;19925;-76
2021/05/19 04:47:23;;;;;;;16.15;11.13;;;;;;;-145.50;100.00;65435.88;4984570;28;20058;-76
2021/05/19 04:49:49;;;;;;;17.05;10.90;;;;;;;-145.50;100.00;65435.88;4998684;28;20514;-76
2021/05/19 04:52:16;;;;;;;16.38;11.18;;;;;;;-145.50;100.00;65435.88;4997827;28;20054;-76
2021/05/19 04:54:42;;;;;;;15.77;11.52;;;;;;;-145.50;100.00;65435.88;4994763;28;20054;-76
2021/05/19 04:57:09;;;;;;;18.50;11.27;;;;;;;-145.50;100.00;65435.88;4998593;28;20141;-76
2021/05/19 04:59:35;;;;;;;17.08;11.60;;;;;;;-145.50;100.00;65435.88;4987253;28;20115;-76
2021/05/19 05:02:04;;;;;;;16.17;11.88;;;;;;;-145.50;100.00;65435.88;4994052;28;20071;-76
2021/05/19 05:04:31;;;;;;;16.27;10.88;;;;;;;-145.50;100.00;65435.88;4992201;28;20080;-76
2021/05/19 05:06:58;;;;;;;14.32;10.82;;;;;;;-145.50;100.00;65435.88;4997650;28;20100;-76
2021/05/19 05:09:25;;;;;;;17.25;11.18;;;;;;;-145.50;100.00;65435.88;5003167;28;20053;-75
2021/05/19 05:11:51;;;;;;;17.02;11.35;;;;;;;-145.50;100.00;65435.88;4989331;28;20053;-76
2021/05/19 05:14:18;;;;;;;16.75;12.15;;;;;;;-145.50;100.00;65435.88;4988144;28;20153;-76
2021/05/19 05:16:45;;;;;;;16.48;10.68;;;;;;;-145.50;100.00;65435.88;4989118;28;20490;-76
2021/05/19 05:19:11;;;;;;;18.35;11.88;;;;;;;-145.50;100.00;65435.88;4998990;28;20572;-75
2021/05/19 05:21:38;;;;;;;16.92;12.13;;;;;;;-145.50;100.00;65435.88;4990261;28;20081;-76
2021/05/19 05:24:05;;;;;;;16.60;11.77;;;;;;;-145.50;100.00;65435.88;5001098;28;20051;-76
2021/05/19 05:26:31;;;;;;;20.95;12.20;;;;;;;-145.50;100.00;65435.88;4998978;28;20220;-76
2021/05/19 05:28:58;;;;;;;15.60;12.13;;;;;;;-145.50;100.00;65435.88;4988903;28;20252;-76
2021/05/19 05:31:25;;;;;;;18.45;11.95;;;;;;;-145.50;100.00;65435.88;4996090;28;20156;-75
2021/05/19 05:33:51;;;;;;;16.40;11.60;;;;;;;-145.50;100.00;65435.88;4991323;28;20058;-76
2021/05/19 05:36:18;;;;;;;16.60;11.48;;;;;;;-145.50;100.00;65435.88;4998936;28;20124;-76
2021/05/19 05:38:45;;;;;;;19.55;12.13;;;;;;;-145.50;100.00;65435.88;4995584;28;20062;-76
2021/05/19 05:41:11;;;;;;;20.63;12.93;;;;;;;-145.50;100.00;65435.88;4992343;28;20242;-76
2021/05/19 05:43:38;;;;;;;21.15;13.35;;;;;;;-145.50;100.00;65435.88;4997041;28;20166;-76
2021/05/19 05:46:05;;;;;;;17.83;12.18;;;;;;;-145.50;100.00;65435.88;4991818;28;20501;-76
2021/05/19 05:48:31;;;;;;;18.85;12.85;;;;;;;-145.50;100.00;65435.88;5001148;28;20255;-76
2021/05/19 05:50:59;;;;;;;18.88;12.48;;;;;;;-145.50;100.00;65435.88;4989770;28;20454;-77
2021/05/19 05:53:26;;;;;;;16.63;12.43;;;;;;;-145.50;100.00;65435.88;4999102;28;20132;-76
2021/05/19 05:55:53;;;;;;;20.67;12.98;;;;;;;-145.50;100.00;65435.88;4997627;28;20107;-76
2021/05/19 05:58:19;;;;;;;18.88;13.30;;;;;;;-145.50;100.00;65435.88;4989646;28;20568;-76
2021/05/19 06:00:46;;;;;;;16.23;13.32;;;;;;;-145.50;100.00;65435.88;4998102;28;20551;-76
2021/05/19 06:03:13;;;;;;;24.08;13.45;;;;;;;-145.50;100.00;65435.88;4990011;28;20050;-76
2021/05/19 06:05:40;;;;;;;19.30;14.00;;;;;;;-145.50;100.00;65435.88;4996133;28;20049;-76
2021/05/19 06:08:07;;;;;;;23.30;13.38;;;;;;;-145.50;100.00;65435.88;4992876;28;20096;-76
2021/05/19 06:10:34;;;;;;;20.00;13.15;;;;;;;-145.50;100.00;65435.88;4987034;28;20046;-77
2021/05/19 06:13:01;;;;;;;20.85;14.27;;;;;;;-145.50;100.00;65435.88;4999010;28;20136;-76
2021/05/19 06:15:27;;;;;;;25.10;14.30;;;;;;;-145.50;100.00;65435.88;4994649;28;20054;-75
2021/05/19 06:17:54;;;;;;;23.75;14.52;;;;;;;-145.50;100.00;65435.88;5001306;28;20062;-75
2021/05/19 06:20:21;;;;;;;21.63;15.20;;;;;;;-145.50;100.00;65435.88;4995536;28;20046;-75
2021/05/19 06:22:47;;;;;;;28.38;14.60;;;;;;;-145.50;100.00;65435.88;4993674;28;20123;-76
2021/05/19 06:25:16;;;;;;;22.27;15.23;;;;;;;-145.50;100.00;65435.88;4990351;28;20393;-75
2021/05/19 06:27:43;;;;;;;;;;;;;;;-145.50;100.00;65435.88;4998822;28;20089;-76
2021/05/19 06:30:10;;;;;;;20.08;14.40;;;;;;;-145.50;100.00;65435.88;5002870;28;20385;-76
2021/05/19 06:32:37;;;;;;;22.77;14.68;;;;;;;-145.50;100.00;65435.88;4991569;28;20054;-75
2021/05/19 06:35:04;;;;;;;22.35;14.35;;;;;;;-145.50;100.00;65435.88;4991323;28;20134;-75
2021/05/19 06:37:31;;;;;;;26.33;15.93;;;;;;;-145.50;100.00;65435.88;4989093;28;20052;-75
2021/05/19 06:39:58;;;;;;;35.90;16.60;;;;;;;-145.50;100.00;65435.88;4998278;28;20054;-76
2021/05/19 06:42:25;;;;;;;26.90;14.77;;;;;;;-145.50;100.00;65435.88;4991139;28;20555;-75
2021/05/19 06:44:52;;;;;;;26.63;15.02;;;;;;;-145.50;100.00;65435.88;4995654;28;20054;-75
2021/05/19 06:47:19;;;;;;;28.00;15.13;;;;;;;-145.50;100.00;65435.88;4999910;28;20527;-75
2021/05/19 06:49:45;;;;;;;31.50;17.67;;;;;;;-145.50;100.00;65435.88;4993400;28;20474;-75
2021/05/19 06:52:12;;;;;;;30.48;14.82;;;;;;;-145.50;100.00;65435.88;4991026;28;20085;-75
2021/05/19 06:54:38;;;;;;;22.23;15.50;;;;;;;-145.50;100.00;65435.88;4990105;28;20495;-75
2021/05/19 06:57:05;;;;;;;24.70;15.98;;;;;;;-145.50;100.00;65435.88;4999051;28;20058;-75
2021/05/19 06:59:31;;;;;;;30.17;15.70;;;;;;;-145.50;100.00;65435.88;4996846;28;20088;-75
2021/05/19 07:01:58;;;;;;;25.02;14.82;;;;;;;-145.50;100.00;65435.88;4991700;28;20402;-75
2021/05/19 07:04:24;;;;;;;28.92;16.30;;;;;;;-145.50;100.00;65435.88;4991515;28;20503;-75
2021/05/19 07:06:51;;;;;;;23.15;14.93;;;;;;;-145.50;100.00;65435.88;4982549;28;20073;-76
2021/05/19 07:09:18;;;;;;;26.25;17.48;;;;;;;-145.50;100.00;65435.88;5002017;28;20089;-75
2021/05/19 07:11:46;;;;;;;31.70;17.73;;;;;;;-145.50;100.00;65435.88;4989299;28;20061;-75
2021/05/19 07:14:16;;;;;;;26.95;16.70;;;;;;;-145.50;100.00;65435.88;4999550;28;20076;-75
2021/05/19 07:16:50;;;;;;;27.77;17.13;;;;;;;-145.50;100.00;65435.88;4986943;28;20050;-75
2021/05/19 07:19:17;;;;;;;28.88;18.10;;;;;;;-145.50;100.00;65435.88;4991686;28;20063;-75
2021/05/19 07:21:43;;;;;;;28.50;17.60;;;;;;;-145.50;100.00;65435.88;4989167;28;20228;-75
2021/05/19 07:24:12;;;;;;;31.88;17.45;;;;;;;-145.50;100.00;65435.88;4994602;28;20053;-75
2021/05/19 07:26:41;;;;;;;39.03;17.45;;;;;;;-145.50;100.00;65435.88;4995539;28;20060;-75
2021/05/19 07:29:08;;;;;;;36.78;18.52;;;;;;;-145.50;100.00;65435.88;4996873;28;20369;-75
2021/05/19 07:31:35;;;;;;;29.02;18.75;;;;;;;-145.50;100.00;65435.88;4996468;28;20127;-75
2021/05/19 07:34:02;;;;;;;32.75;18.75;;;;;;;-145.50;100.00;65435.88;4986461;28;20474;-75
2021/05/19 07:36:29;;;;;;;33.83;18.48;;;;;;;-145.50;100.00;65435.88;4995747;28;20140;-75
2021/05/19 07:38:56;;;;;;;35.17;18.70;;;;;;;-145.50;100.00;65435.88;4996876;28;20049;-75
2021/05/19 07:41:23;;;;;;;31.30;19.17;;;;;;;-145.50;100.00;65435.88;4991204;28;20054;-75
2021/05/19 07:43:50;;;;;;;34.20;19.17;;;;;;;-145.50;100.00;65435.88;5003063;28;20176;-75
2021/05/19 07:46:17;;;;;;;35.63;17.73;;;;;;;-145.50;100.00;65435.88;4986557;28;20342;-75
2021/05/19 07:48:43;;;;;;;36.17;19.90;;;;;;;-145.50;100.00;65435.88;4997701;28;20061;-75
2021/05/19 07:51:08;;;;;;;30.85;17.77;;;;;;;-145.50;100.00;65435.88;4993883;28;20144;-75
2021/05/19 07:53:34;;;;;;;32.60;18.17;;;;;;;-145.50;100.00;65435.88;4999165;28;20044;-75
2021/05/19 07:58:50;;;;;;;32.15;19.80;;;;;;;-145.50;100.00;65435.88;4994989;28;20406;-75
2021/05/19 08:01:43;;;;;;;31.27;19.33;;;;;;;-145.50;100.00;65435.88;4992054;28;20244;-75
2021/05/19 08:04:10;;;;;;;30.63;18.90;;;;;;;-145.50;100.00;65435.88;4983137;28;20156;-75
2021/05/19 08:06:36;;;;;;;29.10;17.30;;;;;;;-145.50;100.00;65435.88;4994227;28;20088;-75
2021/05/19 08:09:02;;;;;;;29.60;17.63;;;;;;;-145.50;100.00;65435.88;4992866;28;20057;-75
2021/05/19 08:11:28;;;;;;;33.10;20.20;;;;;;;-145.50;100.00;65435.88;4995266;28;20080;-75
2021/05/19 08:13:53;;;;;;;32.17;18.35;;;;;;;-145.50;100.00;65435.88;4979307;28;20498;-75
2021/05/19 08:16:18;;;;;;;29.27;19.05;;;;;;;-145.50;100.00;65435.88;4988017;28;20022;-75
2021/05/19 08:18:44;;;;;;;29.95;20.02;;;;;;;-145.50;100.00;65435.88;4999745;28;20120;-74
2021/05/19 08:21:11;;;;;;;34.10;18.52;;;;;;;-145.50;100.00;65435.88;4985483;28;20100;-75
2021/05/19 08:23:37;;;;;;;26.52;18.17;;;;;;;-145.50;100.00;65435.88;4998645;28;20082;-75
2021/05/19 08:26:05;;;;;;;30.75;17.88;;;;;;;-145.50;100.00;65435.88;4988461;28;20053;-75
2021/05/19 08:28:36;;;;;;;26.30;16.38;;;;;;;-145.50;100.00;65435.88;4994246;28;20054;-75
2021/05/19 08:31:04;;;;;;;29.83;17.50;;;;;;;-145.50;100.00;65435.88;4985746;28;20093;-75
2021/05/19 08:33:43;;;;;;;25.80;16.10;;;;;;;-145.50;100.00;65435.88;4998638;28;20104;-76
2021/05/19 08:36:10;;;;;;;31.27;17.30;;;;;;;-145.50;100.00;65435.88;5000934;28;20068;-75
2021/05/19 08:38:38;;;;;;;33.88;16.42;;;;;;;-145.50;100.00;65435.88;4990773;28;20073;-75
2021/05/19 08:41:06;;;;;;;28.60;16.95;;;;;;;-145.50;100.00;65435.88;4992219;28;20537;-76
2021/05/19 08:43:33;;;;;;;29.90;18.37;;;;;;;-145.50;100.00;65435.88;4989945;28;20053;-76
2021/05/19 08:46:04;;;;;;;27.20;17.35;;;;;;;-145.50;100.00;65435.88;5000674;28;20143;-76
2021/05/19 08:48:31;;;;;;;28.30;17.98;;;;;;;-145.50;100.00;65435.88;4987981;28;20046;-76
2021/05/19 08:50:58;;;;;;;26.55;17.65;;;;;;;-145.50;100.00;65435.88;4997266;28;20465;-75
2021/05/19 08:53:27;;;;;;;25.25;16.77;;;;;;;-145.50;100.00;65435.88;5003209;28;20050;-75
2021/05/19 08:55:55;;;;;;;34.72;17.90;;;;;;;-145.50;100.00;65435.88;4984292;28;20057;-75
2021/05/19 08:58:21;;;;;;;32.08;17.73;;;;;;;-145.50;100.00;65435.88;5000212;28;20116;-75
2021/05/19 09:00:51;;;;;;;25.67;17.33;;;;;;;-145.50;100.00;65435.88;4994104;28;20144;-75
2021/05/19 09:03:18;;;;;;;28.38;17.23;;;;;;;-145.50;100.00;65435.88;5004109;28;20104;-75
2021/05/19 09:05:48;;;;;;;30.25;17.17;;;;;;;-145.50;100.00;65435.88;4994040;28;20046;-75
2021/05/19 09:08:19;;;;;;;27.42;17.48;;;;;;;-145.50;100.00;65435.88;5019081;28;20058;-75
2021/05/19 09:11:00;;;;;;;28.30;17.98;;;;;;;-145.50;100.00;65435.88;4996160;28;20100;-75
2021/05/19 09:13:32;;;;;;;29.40;18.25;;;;;;;-145.50;100.00;65435.88;4996301;28;20050;-75
2021/05/19 09:16:00;;;;;;;30.75;19.00;;;;;;;-145.50;100.00;65435.88;5000866;28;20464;-75
2021/05/19 09:18:53;;;;;;;27.23;17.52;;;;;;;-145.50;100.00;65435.88;4991937;28;20077;-75
2021/05/19 09:21:40;;;;;;;26.52;17.63;;;;;;;-145.50;100.00;65435.88;4997335;28;20058;-75
2021/05/19 09:24:10;;;;;;;26.60;17.90;;;;;;;-145.50;100.00;65435.88;4984325;28;20049;-75
2021/05/19 09:26:58;;;;;;;29.17;18.50;;;;;;;-145.50;100.00;65435.88;4994945;28;20082;-75
2021/05/19 09:29:26;;;;;;;27.40;16.65;;;;;;;-145.50;100.00;65435.88;4983509;28;20078;-75
2021/05/19 09:32:03;;;;;;;25.55;17.65;;;;;;;-145.50;100.00;65435.88;5003054;28;20105;-75
2021/05/19 09:34:37;;;;;;;25.42;16.30;;;;;;;-145.50;100.00;65435.88;4995010;28;20069;-75
2021/05/19 09:37:25;;;;;;;27.70;17.23;;;;;;;-145.50;100.00;65435.88;5000911;28;20874;-75
2021/05/19 09:40:12;;;;;;;27.67;17.77;;;;;;;-145.50;100.00;65435.88;4990775;28;20068;-75
2021/05/19 09:42:38;;;;;;;26.88;17.30;;;;;;;-145.50;100.00;65435.88;5002313;28;20560;-75
2021/05/19 09:45:19;;;;;;;27.95;17.73;;;;;;;-145.50;100.00;65435.88;4999192;28;20124;-75
2021/05/19 09:47:47;;;;;;;24.70;17.67;;;;;;;-145.50;100.00;65435.88;5002928;28;20120;-75
2021/05/19 09:50:16;;;;;;;23.85;17.27;;;;;;;-145.50;100.00;65435.88;4995350;28;20054;-75
2021/05/19 09:53:03;;;;;;;25.02;17.42;;;;;;;-145.50;100.00;65435.88;4989720;28;20050;-75
2021/05/19 09:55:30;;;;;;;27.70;18.08;;;;;;;-145.50;100.00;65435.88;4996526;28;20558;-74
2021/05/19 09:57:57;;;;;;;25.17;18.27;;;;;;;-145.50;100.00;65435.88;4992021;28;20089;-75
2021/05/19 10:00:25;;;;;;;28.73;18.52;;;;;;;-145.50;100.00;65435.88;4995821;28;20228;-75
2021/05/19 10:02:52;;;;;;;;;;;;;;;-145.50;100.00;65435.88;4984525;28;21002;-73
2021/05/19 10:05:45;;;;;;;23.90;17.65;;;;;;;-145.50;100.00;65435.88;4990226;28;20341;-75
2021/05/19 10:08:09;;;;;;;26.55;17.85;;;;;;;-145.50;100.00;65435.88;4997645;28;20429;-75
2021/05/19 10:10:38;;;;;;;26.13;18.23;;;;;;;-145.50;100.00;65435.88;4991278;28;20651;-75
2021/05/19 10:13:07;;;;;;;25.15;17.65;;;;;;;-145.50;100.00;65435.88;5002928;28;20521;-75
2021/05/19 10:15:35;;;;;;;22.75;18.05;;;;;;;-145.50;100.00;65435.88;4988445;28;20057;-75
2021/05/19 10:18:06;;;;;;;21.83;17.30;;;;;;;-145.50;100.00;65435.88;4998580;28;20509;-75
2021/05/19 10:20:36;;;;;;;28.15;17.85;;;;;;;-145.50;100.00;65435.88;4985831;28;21008;-74
2021/05/19 10:23:05;;;;;;;23.02;17.02;;;;;;;-145.50;100.00;65435.88;4997917;28;20081;-75
2021/05/19 10:25:40;;;;;;;25.30;15.82;;;;;;;-145.50;100.00;65435.88;4995582;28;20588;-75
2021/05/19 10:28:09;;;;;;;25.35;17.40;;;;;;;-145.50;100.00;65435.88;4992271;28;20050;-71
2021/05/19 10:30:48;;;;;;;31.85;21.55;;;;;;;-145.50;100.00;65435.88;4995697;28;20111;-72
2021/05/19 10:33:37;;;;;;;21.77;17.17;;;;;;;-145.50;100.00;65435.88;4986249;28;20506;-71
2021/05/19 10:36:27;;;;;;;21.50;16.27;;;;;;;-145.50;100.00;65435.88;5000220;28;20050;-71
2021/05/19 10:39:11;;;;;;;22.95;15.70;;;;;;;-145.50;100.00;65435.88;4989833;28;21558;-71
2021/05/19 10:41:46;;;;;;;23.55;15.32;;;;;;;-145.50;100.00;65435.88;5014962;28;20054;-71
2021/05/19 10:44:31;;;;;;;21.35;12.52;;;;;;;-145.50;100.00;65435.88;4989366;28;20061;-71
2021/05/19 10:47:03;;;;;;;17.38;11.68;;;;;;;-145.50;100.00;65435.88;4998475;28;20937;-71
2021/05/19 10:52:44;;;;;;;13.90;10.20;;;;;;;-145.50;100.00;65435.88;4991915;28;20498;-78
2021/05/19 10:58:01;;;;;;;13.80;9.90;;;;;;;-145.50;100.00;65435.88;4993788;28;20065;-70
2021/05/19 11:00:29;;;;;;;5.32;3.45;;;;;;;-145.50;100.00;65435.88;4981184;28;20298;-74
2021/05/19 11:02:57;;;;;;;2.40;0.98;;;;;;;-145.50;100.00;65435.88;4995330;28;20062;-74
2021/05/19 11:05:28;;;;;;;4.88;1.00;;;;;;;-145.50;100.00;65435.88;4995141;28;20046;-76
2021/05/19 11:08:13;;;;;;;8.50;1.90;;;;;;;-145.50;100.00;65435.88;4992091;28;20129;-76
2021/05/19 11:10:47;;;;;;;2.45;0.82;;;;;;;-145.50;100.00;65435.88;4998498;28;20053;-77
2021/05/19 11:13:16;;;;;;;3.45;1.30;;;;;;;-145.50;100.00;65435.88;4983042;28;20077;-77
2021/05/19 11:20:59;;;;;;;8.30;1.50;;;;;;;-145.50;100.00;65435.88;4998934;28;20061;-77
2021/05/19 11:23:27;;;;;;;5.07;1.10;;;;;;;-145.50;100.00;65435.88;4991812;28;20145;-78